Time;durP1;ratioP1;P1;durP2;ratioP2;P2;SDS_P1;SDS_P2;PMS_P1;PMS_P2;Temp;Humidity;BMP_temperature;BMP_pressure;BME280_temperature;BME280_humidity;BME280_pressure;Samples;Min_cycle;Max_cycle;Signal;HPM_P1;HPM_P2
2022/03/10 00:00:18;;;;;;;;;13.25;11.50;;;;;20.46;36.30;101621.91;5064190;28;51129;-48
2022/03/10 00:02:43;;;;;;;;;18.50;13.00;;;;;20.46;36.43;101624.66;5065271;28;51037;-47
2022/03/10 00:05:11;;;;;;;;;15.25;13.75;;;;;20.43;35.90;101622.34;5059483;27;51131;-50
2022/03/10 00:07:36;;;;;;;;;16.25;14.25;;;;;20.42;36.25;101620.56;5062187;28;51085;-50
2022/03/10 00:10:02;;;;;;;;;13.25;11.75;;;;;20.40;35.78;101628.19;5065672;28;51062;-50
2022/03/10 00:12:27;;;;;;;;;15.00;13.00;;;;;20.38;36.08;101620.13;5066227;28;51327;-52
2022/03/10 00:14:53;;;;;;;;;11.75;11.75;;;;;20.37;36.03;101620.34;5065563;28;51937;-50
2022/03/10 00:17:18;;;;;;;;;14.50;13.00;;;;;20.36;35.98;101624.16;5060233;28;51226;-49
2022/03/10 00:19:43;;;;;;;;;14.75;14.25;;;;;20.34;35.77;101615.25;5064093;28;51165;-48
2022/03/10 00:22:11;;;;;;;;;14.75;13.75;;;;;20.33;35.99;101613.56;5066260;28;51228;-47
2022/03/10 00:24:37;;;;;;;;;17.50;14.25;;;;;20.32;35.80;101618.22;5067020;28;51577;-50
2022/03/10 00:27:03;;;;;;;;;13.25;12.50;;;;;20.31;35.80;101615.66;5065417;28;51139;-52
2022/03/10 00:29:28;;;;;;;;;15.25;12.50;;;;;20.30;35.75;101614.78;5065330;27;51172;-52
2022/03/10 00:31:53;;;;;;;;;16.50;13.00;;;;;20.28;35.77;101613.31;5065147;27;51009;-51
2022/03/10 00:34:19;;;;;;;;;21.00;16.00;;;;;20.27;35.94;101623.47;5063559;28;51249;-50
2022/03/10 00:36:45;;;;;;;;;12.00;8.25;;;;;20.26;35.81;101620.91;5066775;28;51052;-48
2022/03/10 00:39:11;;;;;;;;;14.75;14.75;;;;;20.25;35.78;101625.56;5068053;27;51163;-51
2022/03/10 00:41:36;;;;;;;;;13.25;13.25;;;;;20.23;35.69;101624.94;5068307;27;51207;-50
2022/03/10 00:44:01;;;;;;;;;12.75;11.75;;;;;20.22;35.53;101623.25;5065785;27;51797;-50
2022/03/10 00:46:27;;;;;;;;;15.75;11.00;;;;;20.21;35.73;101624.25;5068498;28;51017;-50
2022/03/10 00:48:52;;;;;;;;;11.50;11.50;;;;;20.21;35.86;101632.50;5068559;27;51313;-51
2022/03/10 00:51:18;;;;;;;;;14.00;13.75;;;;;20.20;35.56;101628.06;5067201;27;51350;-52
2022/03/10 00:53:44;;;;;;;;;13.75;12.25;;;;;20.18;35.44;101631.03;5057331;28;51597;-50
2022/03/10 00:56:09;;;;;;;;;12.50;10.25;;;;;20.16;35.58;101630.38;5071689;28;51060;-48
2022/03/10 00:58:35;;;;;;;;;6.00;5.75;;;;;20.15;35.49;101625.94;5063525;27;51071;-52
2022/03/10 01:01:00;;;;;;;;;13.75;12.75;;;;;20.15;35.75;101627.84;5063457;28;51254;-49
2022/03/10 01:03:25;;;;;;;;;15.75;11.50;;;;;20.15;35.85;101625.94;5058689;28;51288;-50
2022/03/10 01:05:51;;;;;;;;;14.50;13.00;;;;;20.15;35.49;101631.44;5066982;28;51364;-51
2022/03/10 01:08:17;;;;;;;;;15.00;13.50;;;;;20.15;35.81;101630.59;5062012;28;51052;-51
2022/03/10 01:10:42;;;;;;;;;14.25;11.00;;;;;20.13;35.57;101632.69;5056842;27;51200;-53
2022/03/10 01:13:17;;;;;;;;;16.50;12.50;;;;;20.11;35.51;101627.41;5058929;28;51163;-49
2022/03/10 01:15:45;;;;;;;;;14.25;12.75;;;;;20.11;35.50;101634.78;5055790;28;51361;-51
2022/03/10 01:18:11;;;;;;;;;15.50;11.50;;;;;20.08;35.81;101638.78;5064651;28;51299;-53
2022/03/10 01:20:36;;;;;;;;;14.00;9.50;;;;;20.08;35.62;101633.28;5062997;28;51325;-48
2022/03/10 01:23:01;;;;;;;;;12.00;10.50;;;;;20.08;35.50;101632.44;5067662;28;51784;-52
2022/03/10 01:25:27;;;;;;;;;15.00;15.00;;;;;20.07;35.55;101626.06;5067176;28;51025;-52
2022/03/10 01:27:52;;;;;;;;;15.25;12.50;;;;;20.07;35.52;101631.59;5065953;28;51029;-52
2022/03/10 01:30:18;;;;;;;;;9.25;8.50;;;;;20.05;35.27;101627.34;5071711;27;51096;-47
2022/03/10 01:32:44;;;;;;;;;16.00;13.50;;;;;20.04;35.49;101628.41;5062150;28;51018;-47
2022/03/10 01:35:10;;;;;;;;;11.75;11.00;;;;;20.04;35.69;101620.13;5062980;27;51796;-49
2022/03/10 01:37:37;;;;;;;;;10.00;9.50;;;;;20.03;35.50;101629.44;5067816;27;51227;-47
2022/03/10 01:40:07;;;;;;;;;15.25;12.25;;;;;20.03;35.69;101626.69;5063154;28;51147;-51
2022/03/10 01:42:32;;;;;;;;;13.00;12.00;;;;;20.02;35.61;101623.09;5059602;28;51765;-51
2022/03/10 01:44:58;;;;;;;;;10.50;7.50;;;;;20.01;35.79;101624.16;5069350;27;52557;-47
2022/03/10 01:47:23;;;;;;;;;12.25;10.50;;;;;20.00;35.26;101622.41;5063498;28;51096;-49
2022/03/10 01:49:49;;;;;;;;;12.75;11.00;;;;;20.00;35.50;101627.06;5066548;28;51254;-51
2022/03/10 01:52:16;;;;;;;;;10.25;10.25;;;;;19.99;35.58;101617.13;5059863;28;51083;-51
2022/03/10 01:54:42;;;;;;;;;15.00;13.25;;;;;19.98;35.75;101616.28;5061819;28;51375;-49
2022/03/10 01:57:09;;;;;;;;;11.00;11.00;;;;;19.98;35.30;101624.53;5066728;28;52188;-51
2022/03/10 01:59:37;;;;;;;;;15.00;13.50;;;;;19.97;35.67;101616.47;5062542;28;51382;-48
2022/03/10 02:02:03;;;;;;;;;15.00;13.00;;;;;19.96;35.67;101615.63;5060710;27;51206;-49
2022/03/10 02:04:28;;;;;;;;;11.00;10.25;;;;;19.95;35.58;101611.19;5065088;28;51025;-50
2022/03/10 02:06:54;;;;;;;;;14.50;11.50;;;;;19.95;35.37;101610.34;5071071;27;51164;-47
2022/03/10 02:12:07;;;;;;;;;16.50;11.75;;;;;19.94;35.40;101606.75;5069726;28;51371;-49
2022/03/10 02:17:22;;;;;;;;;12.75;12.75;;;;;19.91;35.43;101612.66;5063539;28;51176;-49
2022/03/10 02:19:53;;;;;;;;;10.75;10.50;;;;;19.92;35.37;101617.09;5066889;27;51121;-50
2022/03/10 02:22:20;;;;;;;;;14.50;14.25;;;;;19.91;35.45;101609.91;5066516;28;51393;-51
2022/03/10 02:24:46;;;;;;;;;14.00;10.25;;;;;19.90;35.51;101608.19;5061616;28;51093;-46
2022/03/10 02:27:12;;;;;;;;;14.50;11.00;;;;;19.89;35.37;101615.56;5069058;27;51053;-48
2022/03/10 02:29:40;;;;;;;;;15.75;15.50;;;;;19.89;35.72;101611.97;5068996;27;51188;-54
2022/03/10 02:32:05;;;;;;;;;14.75;14.00;;;;;19.88;35.62;101608.38;5069732;28;51682;-49
2022/03/10 02:34:30;;;;;;;;;13.25;13.25;;;;;19.88;35.62;101607.53;5065929;27;51579;-49
2022/03/10 02:36:56;;;;;;;;;13.50;13.50;;;;;19.88;35.25;101610.28;5061215;27;51342;-49
2022/03/10 02:39:22;;;;;;;;;17.00;13.00;;;;;19.88;35.28;101618.53;5059515;28;51103;-51
2022/03/10 02:41:48;;;;;;;;;10.50;10.50;;;;;19.87;35.36;101609.44;5060944;28;51700;-50
2022/03/10 02:44:13;;;;;;;;;13.00;11.75;;;;;19.86;35.70;101618.72;5064933;27;51188;-47
2022/03/10 02:46:38;;;;;;;;;11.50;9.00;;;;;19.86;35.43;101620.63;5062408;28;51220;-49
2022/03/10 02:49:04;;;;;;;;;14.25;11.00;;;;;19.86;35.41;101626.97;5065442;28;51187;-48
2022/03/10 02:51:29;;;;;;;;;11.00;11.00;;;;;19.86;35.45;101628.88;5070984;28;51105;-46
2022/03/10 02:53:54;;;;;;;;;13.00;10.50;;;;;19.84;35.35;101626.34;5066386;27;51258;-48
2022/03/10 02:56:20;;;;;;;;;11.25;11.00;;;;;19.84;35.73;101625.50;5060922;28;51033;-50
2022/03/10 02:58:45;;;;;;;;;9.50;8.25;;;;;19.84;35.60;101628.25;5066040;27;51070;-46
2022/03/10 03:01:10;;;;;;;;;15.25;13.25;;;;;19.84;35.73;101628.25;5058425;28;51973;-49
2022/03/10 03:03:36;;;;;;;;;13.00;12.00;;;;;19.82;35.58;101624.84;5062815;28;50936;-48
2022/03/10 03:06:01;;;;;;;;;16.25;11.75;;;;;19.81;35.58;101618.50;5063861;28;51131;-51
2022/03/10 03:08:27;;;;;;;;;14.00;12.75;;;;;19.82;35.60;101622.94;5059478;28;51084;-50
2022/03/10 03:10:52;;;;;;;;;9.75;8.75;;;;;19.82;35.59;101628.44;5067933;27;51320;-48
2022/03/10 03:13:17;;;;;;;;;13.00;10.50;;;;;19.81;35.61;101628.66;5061008;28;50978;-51
2022/03/10 03:15:43;;;;;;;;;14.25;12.25;;;;;19.80;35.68;101627.78;5069681;27;51121;-50
2022/03/10 03:18:08;;;;;;;;;14.25;12.25;;;;;19.80;35.59;101632.41;5066800;28;51252;-47
2022/03/10 03:20:33;;;;;;;;;14.00;11.25;;;;;19.79;35.63;101630.72;5062060;27;52175;-48
2022/03/10 03:22:58;;;;;;;;;10.25;7.75;;;;;19.79;35.13;101633.47;5060823;27;51119;-49
2022/03/10 03:25:24;;;;;;;;;14.50;12.00;;;;;19.78;35.69;101629.88;5066740;28;51284;-50
2022/03/10 03:27:49;;;;;;;;;12.50;10.00;;;;;19.78;35.57;101631.78;5063647;28;51290;-47
2022/03/10 03:30:16;;;;;;;;;13.25;11.25;;;;;19.78;35.39;101631.78;5070140;27;52424;-49
2022/03/10 03:32:41;;;;;;;;;11.00;9.00;;;;;19.77;35.68;101633.66;5069816;28;51551;-48
2022/03/10 03:35:06;;;;;;;;;15.00;15.00;;;;;19.78;35.51;101645.50;5065580;28;51149;-46
2022/03/10 03:37:32;;;;;;;;;12.50;9.25;;;;;19.77;35.78;101646.56;5061076;27;51130;-48
2022/03/10 03:39:57;;;;;;;;;12.00;12.00;;;;;19.76;35.12;101644.88;5063172;28;52527;-51
2022/03/10 03:42:23;;;;;;;;;14.00;12.75;;;;;19.75;35.64;101652.28;5064207;28;51135;-50
2022/03/10 03:44:48;;;;;;;;;10.00;9.50;;;;;19.75;35.41;101643.16;5069560;28;51460;-49
2022/03/10 03:47:13;;;;;;;;;10.75;10.75;;;;;19.74;35.17;101641.47;5062157;27;51196;-48
2022/03/10 03:49:39;;;;;;;;;12.50;12.50;;;;;19.74;35.38;101646.97;5066386;28;51712;-51
2022/03/10 03:52:04;;;;;;;;;13.25;12.25;;;;;19.73;35.41;101639.78;5062651;28;51057;-51
2022/03/10 03:54:30;;;;;;;;;10.75;9.75;;;;;19.73;35.53;101642.53;5067021;27;51123;-47
2022/03/10 03:56:55;;;;;;;;;14.25;11.75;;;;;19.72;35.61;101644.44;5065603;28;51290;-48
2022/03/10 03:59:20;;;;;;;;;15.25;13.25;;;;;19.72;35.42;101646.31;5059616;28;51610;-53
2022/03/10 04:01:46;;;;;;;;;13.50;13.00;;;;;19.72;35.24;101649.94;5068880;28;51036;-49
2022/03/10 04:04:11;;;;;;;;;11.25;10.25;;;;;19.70;35.55;101649.28;5061791;28;51129;-47
2022/03/10 04:06:37;;;;;;;;;10.00;9.50;;;;;19.70;35.55;101649.28;5065754;27;50970;-49
2022/03/10 04:09:02;;;;;;;;;11.75;11.50;;;;;19.70;35.48;101651.19;5057511;28;51902;-51
2022/03/10 04:11:28;;;;;;;;;13.00;12.75;;;;;19.70;35.28;101646.53;5077340;27;51136;-48
2022/03/10 04:13:54;;;;;;;;;13.00;12.25;;;;;19.70;35.58;101649.28;5067243;28;51285;-47
2022/03/10 04:16:20;;;;;;;;;9.25;9.25;;;;;19.69;35.23;101650.28;5062609;28;51110;-46
2022/03/10 04:18:45;;;;;;;;;14.75;12.50;;;;;19.68;35.43;101648.59;5061248;28;51913;-49
2022/03/10 04:21:11;;;;;;;;;14.50;13.00;;;;;19.67;35.16;101652.41;5065188;28;51107;-45
2022/03/10 04:23:36;;;;;;;;;13.00;10.00;;;;;19.67;35.25;101652.41;5059384;28;51152;-48
2022/03/10 04:26:02;;;;;;;;;16.00;14.50;;;;;19.67;35.09;101660.66;5062238;28;51258;-51
2022/03/10 04:28:27;;;;;;;;;14.50;12.50;;;;;19.67;35.30;101657.06;5068621;27;52365;-49
2022/03/10 04:30:52;;;;;;;;;12.00;11.00;;;;;19.65;35.36;101651.75;5068153;27;51329;-49
2022/03/10 04:33:18;;;;;;;;;16.00;10.75;;;;;19.66;35.12;101652.59;5058593;28;51130;-48
2022/03/10 04:35:44;;;;;;;;;12.75;10.25;;;;;19.65;35.31;101659.16;5060098;28;51101;-47
2022/03/10 04:38:10;;;;;;;;;9.75;9.75;;;;;19.65;35.46;101664.66;5068201;28;52341;-49
2022/03/10 04:40:37;;;;;;;;;13.50;11.50;;;;;19.64;35.69;101663.78;5062020;28;51094;-50
2022/03/10 04:43:02;;;;;;;;;11.75;11.00;;;;;19.64;34.99;101668.44;5069842;27;51023;-51
2022/03/10 04:45:28;;;;;;;;;13.75;12.50;;;;;19.63;35.40;101666.75;5063681;28;51226;-49
2022/03/10 04:47:53;;;;;;;;;12.75;12.50;;;;;19.62;35.72;101663.16;5064941;28;51149;-51
2022/03/10 04:50:19;;;;;;;;;14.75;12.75;;;;;19.62;35.44;101656.81;5062309;28;51134;-48
2022/03/10 04:52:44;;;;;;;;;13.25;12.00;;;;;19.62;35.23;101654.91;5057117;28;51244;-49
2022/03/10 04:55:11;;;;;;;;;15.25;15.00;;;;;19.60;35.29;101652.34;5059145;28;51741;-49
2022/03/10 04:57:37;;;;;;;;;10.75;10.75;;;;;19.60;35.48;101660.59;5064298;28;52144;-48
2022/03/10 05:00:08;;;;;;;;;15.75;13.00;;;;;19.59;35.14;101664.41;5067922;28;51562;-50
2022/03/10 05:02:35;;;;;;;;;12.50;12.25;;;;;19.58;35.10;101659.94;5061243;28;51276;-48
2022/03/10 05:05:00;;;;;;;;;14.75;12.75;;;;;19.59;35.00;101663.53;5060195;28;51542;-48
2022/03/10 05:07:26;;;;;;;;;7.00;6.00;;;;;19.57;35.09;101658.22;5061032;28;51191;-47
2022/03/10 05:09:51;;;;;;;;;14.75;13.00;;;;;19.57;35.11;101660.13;5059791;27;51188;-48
2022/03/10 05:12:16;;;;;;;;;11.25;11.25;;;;;19.57;35.24;101657.38;5060312;28;51259;-45
2022/03/10 05:14:41;;;;;;;;;13.25;12.00;;;;;19.57;35.02;101655.47;5061953;28;51174;-46
2022/03/10 05:17:07;;;;;;;;;11.50;11.50;;;;;19.56;35.18;101655.69;5062605;28;51094;-49
2022/03/10 05:19:32;;;;;;;;;12.25;11.00;;;;;19.56;35.12;101650.19;5069380;28;52435;-50
2022/03/10 05:21:57;;;;;;;;;15.25;12.75;;;;;19.55;34.98;101648.44;5065615;27;51206;-49
2022/03/10 05:24:24;;;;;;;;;13.50;13.50;;;;;19.54;35.35;101646.75;5067251;27;51134;-47
2022/03/10 05:26:49;;;;;;;;;12.75;11.00;;;;;19.54;34.97;101653.09;5061937;27;51915;-50
2022/03/10 05:29:14;;;;;;;;;11.50;10.25;;;;;19.54;34.96;101653.09;5070652;27;51192;-49
2022/03/10 05:31:40;;;;;;;;;12.25;11.25;;;;;19.52;35.18;101649.69;5064536;27;51644;-51
2022/03/10 05:34:06;;;;;;;;;11.00;11.00;;;;;19.52;35.44;101644.22;5061643;28;52247;-49
2022/03/10 05:36:31;;;;;;;;;12.50;11.00;;;;;19.52;35.11;101651.59;5060589;28;52117;-49
2022/03/10 05:38:56;;;;;;;;;14.25;12.75;;;;;19.51;35.18;101650.75;5055337;28;51060;-51
2022/03/10 05:41:22;;;;;;;;;14.50;13.50;;;;;19.51;35.09;101647.16;5057841;28;51550;-50
2022/03/10 05:43:47;;;;;;;;;10.50;10.00;;;;;19.49;35.23;101652.84;5059135;28;51024;-49
2022/03/10 05:46:12;;;;;;;;;13.00;11.50;;;;;19.50;35.35;101661.94;5059494;28;52046;-52
2022/03/10 05:48:37;;;;;;;;;15.25;13.50;;;;;19.49;35.15;101661.09;5060719;28;51140;-51
2022/03/10 05:51:03;;;;;;;;;14.25;14.00;;;;;19.49;35.25;101657.50;5063140;28;51059;-47
2022/03/10 05:53:29;;;;;;;;;16.25;14.00;;;;;19.48;35.29;101658.50;5060528;27;51292;-57
2022/03/10 05:55:54;;;;;;;;;16.50;13.50;;;;;19.48;34.92;101666.75;5069221;28;52022;-48
2022/03/10 05:58:19;;;;;;;;;11.00;11.00;;;;;19.49;35.14;101663.00;5063646;28;51223;-51
2022/03/10 06:00:45;;;;;;;;;12.25;11.25;;;;;19.48;35.20;101658.50;5061409;27;51121;-47
2022/03/10 06:03:10;;;;;;;;;15.25;13.50;;;;;19.47;34.90;101663.16;5058309;28;50971;-48
2022/03/10 06:05:36;;;;;;;;;13.00;11.00;;;;;19.47;34.98;101662.31;5075623;28;51124;-47
2022/03/10 06:08:01;;;;;;;;;15.50;14.50;;;;;19.47;34.99;101667.81;5061163;27;51131;-51
2022/03/10 06:10:26;;;;;;;;;11.75;10.50;;;;;19.45;35.24;101673.50;5075984;27;51439;-48
2022/03/10 06:12:52;;;;;;;;;23.00;20.00;;;;;19.45;34.61;101670.75;5064921;27;51182;-47
2022/03/10 06:15:18;;;;;;;;;24.25;21.75;;;;;19.44;34.74;101677.31;5064613;28;51889;-48
2022/03/10 06:17:43;;;;;;;;;23.25;19.00;;;;;19.43;34.13;101669.25;5074184;27;51289;-48
2022/03/10 06:20:11;;;;;;;;;23.25;22.75;;;;;19.39;33.86;101668.81;5070850;28;51061;-46
2022/03/10 06:22:36;;;;;;;;;26.00;24.25;;;;;19.38;34.02;101674.47;5071080;28;51150;-50
2022/03/10 06:25:03;;;;;;;;;25.25;23.75;;;;;19.34;33.69;101674.03;5072765;28;51053;-50
2022/03/10 06:27:28;;;;;;;;;33.25;28.75;;;;;19.30;33.40;101676.31;5068699;27;50982;-47
2022/03/10 06:29:54;;;;;;;;;29.25;23.50;;;;;19.28;33.36;101677.56;5093245;27;51135;-50
2022/03/10 06:32:21;;;;;;;;;29.25;24.25;;;;;19.24;33.23;101676.22;5069291;27;51105;-47
2022/03/10 06:34:48;;;;;;;;;29.50;26.75;;;;;19.21;33.21;101682.13;5072132;28;53015;-47
2022/03/10 06:37:14;;;;;;;;;32.50;28.25;;;;;19.18;33.01;101688.88;5074095;28;51680;-52
2022/03/10 06:39:40;;;;;;;;;25.00;23.75;;;;;19.13;33.39;101676.75;5071405;27;51066;-48
2022/03/10 06:42:06;;;;;;;;;27.50;22.25;;;;;19.09;33.47;101672.69;5063447;28;52993;-50
2022/03/10 06:44:33;;;;;;;;;30.50;26.00;;;;;19.09;33.81;101676.28;5065162;28;51703;-52
2022/03/10 06:46:58;;;;;;;;;25.75;22.50;;;;;19.12;34.20;101675.03;5059478;28;51471;-50
2022/03/10 06:49:24;;;;;;;;;20.25;17.25;;;;;19.16;34.33;101677.19;5066245;27;51164;-50
2022/03/10 06:51:49;;;;;;;;;24.25;23.00;;;;;19.23;34.63;101677.28;5065400;28;51223;-49
2022/03/10 06:54:16;;;;;;;;;19.00;16.75;;;;;19.30;34.55;101675.47;5067221;28;51607;-51
2022/03/10 06:56:42;;;;;;;;;22.50;17.75;;;;;19.36;34.63;101682.06;5068526;27;51187;-49
2022/03/10 06:59:07;;;;;;;;;17.50;15.75;;;;;19.42;35.16;101679.41;5068456;27;51209;-51
2022/03/10 07:01:33;;;;;;;;;14.00;13.75;;;;;19.47;35.31;101685.16;5065927;27;51085;-50
2022/03/10 07:03:59;;;;;;;;;15.25;15.25;;;;;19.55;35.32;101681.44;5068808;27;52480;-50
2022/03/10 07:06:25;;;;;;;;;17.50;13.75;;;;;19.62;35.56;101687.03;5065249;28;51446;-49
2022/03/10 07:08:51;;;;;;;;;13.00;11.25;;;;;19.71;35.79;101694.09;5072420;27;51156;-47
2022/03/10 07:11:17;;;;;;;;;11.75;11.75;;;;;19.78;36.06;101689.50;5068010;27;51146;-47
2022/03/10 07:13:42;;;;;;;;;15.25;12.50;;;;;19.84;36.01;101689.56;5065389;27;51619;-50
2022/03/10 07:16:08;;;;;;;;;13.00;11.00;;;;;19.89;35.95;101695.31;5066245;28;51019;-50
2022/03/10 07:18:34;;;;;;;;;15.50;11.75;;;;;19.96;36.19;101695.38;5075209;27;51167;-52
2022/03/10 07:20:59;;;;;;;;;15.25;12.50;;;;;20.01;35.96;101698.41;5066368;27;51319;-49
2022/03/10 07:23:24;;;;;;;;;14.00;14.00;;;;;20.07;35.85;101707.75;5069495;28;51839;-53
2022/03/10 07:25:50;;;;;;;;;11.00;9.50;;;;;20.12;36.57;101706.13;5059560;28;51099;-57
2022/03/10 07:28:15;;;;;;;;;13.25;12.25;;;;;20.21;36.45;101716.94;5065041;27;51375;-46
2022/03/10 07:30:40;;;;;;;;;9.75;9.75;;;;;20.27;36.64;101711.50;5060322;27;51047;-50
2022/03/10 07:33:06;;;;;;;;;12.50;11.50;;;;;20.34;36.62;101711.56;5060956;28;51184;-48
2022/03/10 07:35:31;;;;;;;;;15.50;13.00;;;;;20.41;36.48;101718.78;5072561;28;51254;-52
2022/03/10 07:37:59;;;;;;;;;14.00;12.75;;;;;20.41;36.60;101710.53;5063162;27;51290;-45
2022/03/10 07:40:25;;;;;;;;;18.00;13.00;;;;;20.41;36.57;101707.78;5055159;28;51060;-49
2022/03/10 07:42:51;;;;;;;;;16.00;12.75;;;;;20.40;36.72;101716.25;5064616;27;51091;-51
2022/03/10 07:45:16;;;;;;;;;17.00;14.25;;;;;20.37;36.55;101711.16;5065767;27;51284;-49
2022/03/10 07:47:42;;;;;;;;;20.00;15.00;;;;;20.37;36.98;101711.16;5059532;28;51217;-50
2022/03/10 07:50:08;;;;;;;;;16.25;13.50;;;;;20.35;36.84;101714.13;5064193;27;51014;-48
2022/03/10 07:52:33;;;;;;;;;20.25;17.00;;;;;20.33;36.51;101712.63;5061635;27;51500;-50
2022/03/10 07:54:59;;;;;;;;;15.50;13.00;;;;;20.33;36.94;101713.47;5059644;28;51305;-49
2022/03/10 07:57:24;;;;;;;;;16.50;14.75;;;;;20.32;37.09;101717.28;5069633;27;51128;-50
2022/03/10 07:59:51;;;;;;;;;18.00;16.25;;;;;20.32;36.92;101714.53;5065560;28;51254;-50
2022/03/10 08:02:17;;;;;;;;;20.25;19.25;;;;;20.32;37.40;101719.16;5063269;28;52014;-47
2022/03/10 08:04:43;;;;;;;;;14.50;14.00;;;;;20.30;36.94;101715.75;5058855;28;51183;-48
2022/03/10 08:07:08;;;;;;;;;15.50;15.50;;;;;20.27;36.87;101713.41;5066890;28;51277;-50
2022/03/10 08:09:35;;;;;;;;;18.50;14.00;;;;;20.23;37.43;101712.97;5065064;27;51192;-50
2022/03/10 08:12:00;;;;;;;;;18.25;15.00;;;;;20.22;37.38;101705.78;5063107;27;51069;-49
2022/03/10 08:14:26;;;;;;;;;21.75;15.75;;;;;20.19;37.71;101703.41;5064717;27;51092;-51
2022/03/10 08:16:51;;;;;;;;;15.75;15.75;;;;;20.16;37.86;101701.06;5073069;28;51190;-50
2022/03/10 08:19:17;;;;;;;;;20.00;15.75;;;;;20.11;37.91;101709.91;5058794;27;50966;-50
2022/03/10 08:21:43;;;;;;;;;14.50;12.75;;;;;20.08;37.46;101707.53;5071408;28;51968;-48
2022/03/10 08:24:08;;;;;;;;;17.00;14.00;;;;;20.05;38.03;101707.94;5058844;27;51013;-52
2022/03/10 08:26:34;;;;;;;;;18.75;16.00;;;;;20.00;38.03;101704.94;5064253;27;51062;-51
2022/03/10 08:28:59;;;;;;;;;17.00;15.75;;;;;19.96;37.89;101709.13;5068695;27;50988;-49
2022/03/10 08:31:24;;;;;;;;;14.00;14.00;;;;;19.92;37.63;101710.59;5073143;27;52198;-48
2022/03/10 08:33:51;;;;;;;;;15.50;15.25;;;;;19.92;37.71;101709.75;5056978;27;51167;-50
2022/03/10 08:36:16;;;;;;;;;12.75;12.50;;;;;19.90;37.72;101707.16;5064496;28;51274;-50
2022/03/10 08:38:42;;;;;;;;;16.00;13.25;;;;;19.88;37.71;101701.88;5071491;27;51159;-52
2022/03/10 08:41:08;;;;;;;;;14.25;13.00;;;;;19.85;37.94;101696.78;5064612;28;51272;-47
2022/03/10 08:43:33;;;;;;;;;16.75;15.75;;;;;19.83;37.77;101698.88;5066922;28;51093;-51
2022/03/10 08:46:01;;;;;;;;;16.25;13.25;;;;;19.81;37.51;101689.97;5072039;28;51178;-51
2022/03/10 08:48:27;;;;;;;;;12.50;10.50;;;;;19.79;37.88;101686.56;5056599;28;51022;-47
2022/03/10 08:50:52;;;;;;;;;13.00;12.00;;;;;19.80;38.13;101692.91;5062083;28;52682;-51
2022/03/10 08:53:18;;;;;;;;;14.75;13.75;;;;;19.77;38.11;101688.66;5064258;28;50981;-51
2022/03/10 08:55:43;;;;;;;;;14.50;13.50;;;;;19.78;38.06;101686.75;5065845;27;51295;-49
2022/03/10 08:58:09;;;;;;;;;13.25;12.25;;;;;19.78;37.95;101693.09;5063903;28;51109;-48
2022/03/10 09:00:34;;;;;;;;;15.00;13.00;;;;;19.81;37.95;101686.38;5069116;27;52714;-49
2022/03/10 09:03:01;;;;;;;;;16.00;12.50;;;;;19.85;38.11;101683.03;5072585;27;51275;-48
2022/03/10 09:05:26;;;;;;;;;11.75;11.50;;;;;19.89;38.13;101694.47;5059640;28;51093;-47
2022/03/10 09:07:52;;;;;;;;;15.00;12.50;;;;;19.93;38.04;101683.94;5063796;28;51101;-48
2022/03/10 09:10:17;;;;;;;;;11.50;11.25;;;;;19.96;37.97;101691.78;5067337;27;51217;-53
2022/03/10 09:12:43;;;;;;;;;12.50;11.25;;;;;19.99;38.15;101697.72;5055487;28;51222;-50
2022/03/10 09:15:09;;;;;;;;;12.75;12.75;;;;;20.02;37.26;101689.09;5055962;28;51262;-48
2022/03/10 09:17:35;;;;;;;;;12.75;12.75;;;;;20.07;37.45;101685.75;5059635;28;51268;-51
2022/03/10 09:20:01;;;;;;;;;12.75;12.75;;;;;20.10;37.32;101688.94;5058928;27;52150;-50
2022/03/10 09:22:26;;;;;;;;;18.25;14.00;;;;;20.15;37.15;101683.69;5057159;28;51220;-51
2022/03/10 09:24:52;;;;;;;;;10.50;9.75;;;;;20.22;37.21;101683.75;5064528;28;51151;-52
2022/03/10 09:27:18;;;;;;;;;9.75;9.75;;;;;20.28;36.81;101693.09;5057451;27;51062;-52
2022/03/10 09:29:44;;;;;;;;;15.50;12.50;;;;;20.33;36.32;101690.59;5057868;27;52441;-48
2022/03/10 09:32:10;;;;;;;;;13.75;12.25;;;;;20.39;36.94;101689.78;5060883;27;51872;-51
2022/03/10 09:34:36;;;;;;;;;14.50;13.25;;;;;20.44;36.11;101688.19;5061200;27;51441;-48
2022/03/10 09:37:01;;;;;;;;;15.50;11.25;;;;;20.52;35.79;101689.03;5061543;27;51455;-51
2022/03/10 09:39:26;;;;;;;;;10.00;9.75;;;;;20.56;36.28;101688.47;5061206;27;51217;-50
2022/03/10 09:41:55;;;;;;;;;16.00;14.00;;;;;20.62;35.78;101676.63;5057812;28;51377;-49
2022/03/10 09:44:21;;;;;;;;;13.75;10.50;;;;;20.67;35.59;101679.63;5063567;27;51256;-48
2022/03/10 09:46:50;;;;;;;;;13.50;10.75;;;;;20.71;35.63;101675.41;5058055;28;51176;-50
2022/03/10 09:49:16;;;;;;;;;13.50;11.00;;;;;20.76;35.93;101674.81;5064845;28;52012;-49
2022/03/10 09:51:42;;;;;;;;;10.75;10.75;;;;;20.82;35.37;101684.13;5059589;27;51839;-50
2022/03/10 09:54:07;;;;;;;;;11.75;9.25;;;;;20.85;35.40;101676.34;5067892;27;51226;-49
2022/03/10 09:56:36;;;;;;;;;10.50;9.25;;;;;20.90;35.36;101676.56;5069528;27;51085;-46
2022/03/10 09:59:05;;;;;;;;;13.50;11.00;;;;;20.95;35.05;101670.44;5066038;27;52025;-49
2022/03/10 10:01:30;;;;;;;;;11.75;9.25;;;;;20.99;35.17;101674.47;5063080;27;51533;-53
2022/03/10 10:03:56;;;;;;;;;11.50;10.00;;;;;21.04;35.05;101678.28;5057396;28;51180;-49
2022/03/10 10:06:21;;;;;;;;;9.75;9.75;;;;;21.08;34.98;101673.25;5058720;27;52206;-49
2022/03/10 10:08:57;;;;;;;;;10.00;8.50;;;;;21.13;34.66;101675.38;5067143;28;51163;-48
2022/03/10 10:11:40;;;;;;;;;9.50;9.50;;;;;21.18;34.39;101668.19;5059456;28;51415;-50
2022/03/10 10:14:06;;;;;;;;;8.25;8.25;;;;;21.21;34.30;101667.78;5066726;27;51064;-51
2022/03/10 10:16:31;;;;;;;;;13.75;10.75;;;;;21.25;34.72;101663.53;5065944;27;51353;-50
2022/03/10 10:18:58;;;;;;;;;14.25;11.00;;;;;21.29;34.87;101653.00;5061410;27;51205;-50
2022/03/10 10:21:24;;;;;;;;;14.25;10.00;;;;;21.31;34.45;101654.47;5058398;27;52763;-49
2022/03/10 10:23:53;;;;;;;;;11.75;10.75;;;;;21.36;34.20;101653.00;5060384;27;51190;-50
2022/03/10 10:26:20;;;;;;;;;9.75;9.50;;;;;21.39;34.44;101658.09;5054455;28;51233;-50
2022/03/10 10:28:49;;;;;;;;;12.25;11.00;;;;;21.41;33.89;101651.31;5066150;27;52457;-52
2022/03/10 10:31:17;;;;;;;;;10.75;9.25;;;;;21.45;33.79;101658.09;5068629;28;51113;-53
2022/03/10 10:33:56;;;;;;;;;11.00;11.00;;;;;21.49;34.31;101655.78;5062647;27;51486;-51
2022/03/10 10:36:25;;;;;;;;;11.00;9.25;;;;;21.50;33.77;101644.56;5058510;27;51208;-50
2022/03/10 10:38:53;;;;;;;;;13.25;10.50;;;;;21.53;33.69;101637.75;5058003;27;51746;-49
2022/03/10 10:41:18;;;;;;;;;9.00;8.25;;;;;21.54;33.66;101637.56;5059443;27;51125;-50
2022/03/10 10:43:49;;;;;;;;;10.75;10.75;;;;;21.56;34.01;101632.66;5057949;27;51192;-51
2022/03/10 10:46:33;;;;;;;;;8.75;7.50;;;;;21.58;33.98;101629.72;5064794;27;51281;-49
2022/03/10 10:49:04;;;;;;;;;11.00;11.00;;;;;21.59;33.47;101626.75;5059483;28;51917;-50
2022/03/10 10:51:48;;;;;;;;;8.25;8.00;;;;;21.61;33.80;101619.13;5056139;27;51095;-51
2022/03/10 10:54:25;;;;;;;;;10.00;9.75;;;;;21.63;33.53;101616.13;5062935;27;51129;-50
2022/03/10 10:56:53;;;;;;;;;12.25;10.00;;;;;21.64;33.52;101611.47;5069918;27;51280;-46
2022/03/10 10:59:39;;;;;;;;;8.00;8.00;;;;;21.65;33.89;101607.66;5065871;27;52922;-50
2022/03/10 11:02:14;;;;;;;;;6.00;6.00;;;;;21.66;33.23;101610.19;5068943;27;51078;-46
2022/03/10 11:04:42;;;;;;;;;12.00;9.00;;;;;21.66;33.12;101601.91;5068175;27;51262;-48
2022/03/10 11:07:09;;;;;;;;;12.75;11.00;;;;;21.67;33.31;101600.84;5069952;27;51188;-49
2022/03/10 11:09:35;;;;;;;;;8.00;8.00;;;;;21.67;33.63;101595.34;5068405;28;52184;-52
2022/03/10 11:12:00;;;;;;;;;9.25;7.75;;;;;21.67;33.34;101592.59;5062734;27;51276;-51